sensor_id;sensor_type;location;lat;lon;timestamp;P1;durP1;ratioP1;P2;durP2;ratioP2
69551;SDS011;63774;45.292;11.784;2022-10-22T00:00:07;13.30;;;8.30;;
69551;SDS011;63774;45.292;11.784;2022-10-22T00:02:36;10.70;;;7.40;;
69551;SDS011;63774;45.292;11.784;2022-10-22T00:05:02;12.20;;;8.00;;
69551;SDS011;63774;45.292;11.784;2022-10-22T00:07:28;13.10;;;8.20;;
69551;SDS011;63774;45.292;11.784;2022-10-22T00:09:53;12.90;;;8.40;;
69551;SDS011;63774;45.292;11.784;2022-10-22T00:12:19;11.90;;;8.20;;
69551;SDS011;63774;45.292;11.784;2022-10-22T00:14:45;11.70;;;7.80;;
69551;SDS011;63774;45.292;11.784;2022-10-22T00:17:11;14.80;;;8.50;;
69551;SDS011;63774;45.292;11.784;2022-10-22T00:19:36;12.60;;;8.00;;
69551;SDS011;63774;45.292;11.784;2022-10-22T00:22:02;11.60;;;8.30;;
69551;SDS011;63774;45.292;11.784;2022-10-22T00:24:30;12.50;;;8.00;;
69551;SDS011;63774;45.292;11.784;2022-10-22T00:26:56;12.20;;;8.30;;
69551;SDS011;63774;45.292;11.784;2022-10-22T00:29:22;11.50;;;7.90;;
69551;SDS011;63774;45.292;11.784;2022-10-22T00:31:47;12.40;;;7.80;;
69551;SDS011;63774;45.292;11.784;2022-10-22T00:34:16;9.60;;;7.30;;
69551;SDS011;63774;45.292;11.784;2022-10-22T00:36:44;11.40;;;8.00;;
69551;SDS011;63774;45.292;11.784;2022-10-22T00:39:10;14.30;;;7.80;;
69551;SDS011;63774;45.292;11.784;2022-10-22T00:41:37;10.50;;;7.40;;
69551;SDS011;63774;45.292;11.784;2022-10-22T00:44:04;10.10;;;7.30;;
69551;SDS011;63774;45.292;11.784;2022-10-22T00:46:30;10.80;;;7.40;;
69551;SDS011;63774;45.292;11.784;2022-10-22T00:48:57;10.50;;;7.40;;
69551;SDS011;63774;45.292;11.784;2022-10-22T00:51:26;12.10;;;7.60;;
69551;SDS011;63774;45.292;11.784;2022-10-22T00:53:59;10.60;;;7.30;;
69551;SDS011;63774;45.292;11.784;2022-10-22T00:56:28;10.30;;;7.50;;
69551;SDS011;63774;45.292;11.784;2022-10-22T00:58:57;9.50;;;7.10;;
69551;SDS011;63774;45.292;11.784;2022-10-22T01:01:29;11.40;;;7.40;;
69551;SDS011;63774;45.292;11.784;2022-10-22T01:03:56;11.00;;;7.70;;
69551;SDS011;63774;45.292;11.784;2022-10-22T01:06:25;11.20;;;7.80;;
69551;SDS011;63774;45.292;11.784;2022-10-22T01:08:55;9.80;;;7.30;;
69551;SDS011;63774;45.292;11.784;2022-10-22T01:14:19;11.40;;;7.40;;
69551;SDS011;63774;45.292;11.784;2022-10-22T01:16:54;9.50;;;6.40;;
69551;SDS011;63774;45.292;11.784;2022-10-22T01:30:21;10.50;;;7.20;;
69551;SDS011;63774;45.292;11.784;2022-10-22T01:32:52;10.40;;;6.90;;
69551;SDS011;63774;45.292;11.784;2022-10-22T01:35:22;9.10;;;7.10;;
69551;SDS011;63774;45.292;11.784;2022-10-22T01:37:52;10.50;;;7.20;;
69551;SDS011;63774;45.292;11.784;2022-10-22T01:40:22;9.90;;;6.80;;
69551;SDS011;63774;45.292;11.784;2022-10-22T01:45:21;10.20;;;7.30;;
69551;SDS011;63774;45.292;11.784;2022-10-22T01:47:51;9.10;;;7.00;;
69551;SDS011;63774;45.292;11.784;2022-10-22T01:56:09;11.40;;;7.30;;
69551;SDS011;63774;45.292;11.784;2022-10-22T02:04:28;9.80;;;7.00;;
69551;SDS011;63774;45.292;11.784;2022-10-22T02:07:05;8.50;;;6.60;;
69551;SDS011;63774;45.292;11.784;2022-10-22T02:09:34;9.80;;;7.00;;
69551;SDS011;63774;45.292;11.784;2022-10-22T02:12:01;9.40;;;6.60;;
69551;SDS011;63774;45.292;11.784;2022-10-22T02:14:30;9.30;;;6.70;;
69551;SDS011;63774;45.292;11.784;2022-10-22T02:16:57;9.30;;;6.70;;
69551;SDS011;63774;45.292;11.784;2022-10-22T02:19:25;9.10;;;6.90;;
69551;SDS011;63774;45.292;11.784;2022-10-22T02:21:53;8.80;;;6.80;;
69551;SDS011;63774;45.292;11.784;2022-10-22T02:24:19;9.60;;;6.80;;
69551;SDS011;63774;45.292;11.784;2022-10-22T02:29:34;10.20;;;6.70;;
69551;SDS011;63774;45.292;11.784;2022-10-22T02:32:03;9.90;;;6.80;;
69551;SDS011;63774;45.292;11.784;2022-10-22T02:34:33;10.20;;;6.60;;
69551;SDS011;63774;45.292;11.784;2022-10-22T02:36:58;8.10;;;6.60;;
69551;SDS011;63774;45.292;11.784;2022-10-22T02:39:26;9.80;;;6.80;;
69551;SDS011;63774;45.292;11.784;2022-10-22T02:41:54;8.90;;;6.70;;
69551;SDS011;63774;45.292;11.784;2022-10-22T02:44:22;9.50;;;6.80;;
69551;SDS011;63774;45.292;11.784;2022-10-22T02:46:48;8.50;;;6.20;;
69551;SDS011;63774;45.292;11.784;2022-10-22T02:49:15;10.00;;;7.10;;
69551;SDS011;63774;45.292;11.784;2022-10-22T02:51:41;8.20;;;6.40;;
69551;SDS011;63774;45.292;11.784;2022-10-22T02:54:06;9.90;;;6.90;;
69551;SDS011;63774;45.292;11.784;2022-10-22T02:56:32;9.40;;;7.10;;
69551;SDS011;63774;45.292;11.784;2022-10-22T02:58:57;9.50;;;6.70;;
69551;SDS011;63774;45.292;11.784;2022-10-22T03:01:23;10.10;;;7.20;;
69551;SDS011;63774;45.292;11.784;2022-10-22T03:03:48;8.70;;;6.30;;
69551;SDS011;63774;45.292;11.784;2022-10-22T03:06:14;9.80;;;7.10;;
69551;SDS011;63774;45.292;11.784;2022-10-22T03:08:40;9.20;;;6.70;;
69551;SDS011;63774;45.292;11.784;2022-10-22T03:11:06;8.30;;;6.40;;
69551;SDS011;63774;45.292;11.784;2022-10-22T03:13:31;9.10;;;6.60;;
69551;SDS011;63774;45.292;11.784;2022-10-22T03:15:57;9.20;;;6.40;;
69551;SDS011;63774;45.292;11.784;2022-10-22T03:18:22;10.20;;;6.90;;
69551;SDS011;63774;45.292;11.784;2022-10-22T03:20:48;8.80;;;6.30;;
69551;SDS011;63774;45.292;11.784;2022-10-22T03:23:13;9.20;;;6.90;;
69551;SDS011;63774;45.292;11.784;2022-10-22T03:25:43;8.50;;;6.40;;
69551;SDS011;63774;45.292;11.784;2022-10-22T03:28:12;9.70;;;6.50;;
69551;SDS011;63774;45.292;11.784;2022-10-22T03:30:39;8.50;;;6.60;;
69551;SDS011;63774;45.292;11.784;2022-10-22T03:33:05;9.60;;;6.70;;
69551;SDS011;63774;45.292;11.784;2022-10-22T03:35:30;8.10;;;6.30;;
69551;SDS011;63774;45.292;11.784;2022-10-22T03:37:58;9.50;;;6.70;;
69551;SDS011;63774;45.292;11.784;2022-10-22T03:40:25;10.20;;;6.40;;
69551;SDS011;63774;45.292;11.784;2022-10-22T03:42:51;7.80;;;5.70;;
69551;SDS011;63774;45.292;11.784;2022-10-22T03:45:16;8.90;;;6.20;;
69551;SDS011;63774;45.292;11.784;2022-10-22T03:47:42;9.70;;;6.50;;
69551;SDS011;63774;45.292;11.784;2022-10-22T03:50:07;8.70;;;6.70;;
69551;SDS011;63774;45.292;11.784;2022-10-22T03:52:34;9.10;;;6.20;;
69551;SDS011;63774;45.292;11.784;2022-10-22T03:55:04;9.10;;;6.20;;
69551;SDS011;63774;45.292;11.784;2022-10-22T03:57:30;10.30;;;6.80;;
69551;SDS011;63774;45.292;11.784;2022-10-22T03:59:56;8.80;;;6.60;;
69551;SDS011;63774;45.292;11.784;2022-10-22T04:02:21;9.20;;;6.60;;
69551;SDS011;63774;45.292;11.784;2022-10-22T04:04:47;9.40;;;6.50;;
69551;SDS011;63774;45.292;11.784;2022-10-22T04:07:13;7.90;;;6.40;;
69551;SDS011;63774;45.292;11.784;2022-10-22T04:09:38;8.30;;;6.00;;
69551;SDS011;63774;45.292;11.784;2022-10-22T04:12:04;9.50;;;6.30;;
69551;SDS011;63774;45.292;11.784;2022-10-22T04:14:30;8.00;;;6.00;;
69551;SDS011;63774;45.292;11.784;2022-10-22T04:16:56;8.60;;;6.20;;
69551;SDS011;63774;45.292;11.784;2022-10-22T04:19:22;8.90;;;6.40;;
69551;SDS011;63774;45.292;11.784;2022-10-22T04:21:48;8.90;;;6.20;;
69551;SDS011;63774;45.292;11.784;2022-10-22T04:24:13;8.50;;;6.10;;
69551;SDS011;63774;45.292;11.784;2022-10-22T04:26:39;9.00;;;6.40;;
69551;SDS011;63774;45.292;11.784;2022-10-22T04:29:05;7.70;;;6.10;;
69551;SDS011;63774;45.292;11.784;2022-10-22T04:31:31;8.70;;;6.00;;
69551;SDS011;63774;45.292;11.784;2022-10-22T04:33:57;8.10;;;5.80;;
69551;SDS011;63774;45.292;11.784;2022-10-22T04:36:24;8.50;;;6.10;;
69551;SDS011;63774;45.292;11.784;2022-10-22T04:38:52;9.30;;;6.60;;
69551;SDS011;63774;45.292;11.784;2022-10-22T04:41:27;7.90;;;6.30;;
69551;SDS011;63774;45.292;11.784;2022-10-22T04:43:55;7.90;;;5.90;;
69551;SDS011;63774;45.292;11.784;2022-10-22T04:46:22;8.20;;;6.00;;
69551;SDS011;63774;45.292;11.784;2022-10-22T04:48:49;9.50;;;6.20;;
69551;SDS011;63774;45.292;11.784;2022-10-22T04:51:17;9.70;;;6.30;;
69551;SDS011;63774;45.292;11.784;2022-10-22T04:53:44;8.80;;;6.30;;
69551;SDS011;63774;45.292;11.784;2022-10-22T04:58:36;8.40;;;6.20;;
69551;SDS011;63774;45.292;11.784;2022-10-22T05:01:12;9.30;;;6.40;;
69551;SDS011;63774;45.292;11.784;2022-10-22T05:03:46;9.20;;;6.40;;
69551;SDS011;63774;45.292;11.784;2022-10-22T05:06:13;8.40;;;6.20;;
69551;SDS011;63774;45.292;11.784;2022-10-22T05:08:40;9.20;;;6.40;;
69551;SDS011;63774;45.292;11.784;2022-10-22T05:11:09;8.40;;;6.50;;
69551;SDS011;63774;45.292;11.784;2022-10-22T05:13:36;9.40;;;6.50;;
69551;SDS011;63774;45.292;11.784;2022-10-22T05:16:02;8.80;;;6.20;;
69551;SDS011;63774;45.292;11.784;2022-10-22T05:18:27;8.20;;;5.90;;
69551;SDS011;63774;45.292;11.784;2022-10-22T05:20:53;8.10;;;5.90;;
69551;SDS011;63774;45.292;11.784;2022-10-22T05:23:18;8.90;;;6.50;;
69551;SDS011;63774;45.292;11.784;2022-10-22T05:25:44;8.30;;;6.00;;
69551;SDS011;63774;45.292;11.784;2022-10-22T05:28:09;8.70;;;6.40;;
69551;SDS011;63774;45.292;11.784;2022-10-22T05:30:35;9.10;;;6.40;;
69551;SDS011;63774;45.292;11.784;2022-10-22T05:33:00;7.50;;;6.00;;
69551;SDS011;63774;45.292;11.784;2022-10-22T05:35:25;9.50;;;6.20;;
69551;SDS011;63774;45.292;11.784;2022-10-22T05:37:51;8.10;;;6.40;;
69551;SDS011;63774;45.292;11.784;2022-10-22T05:40:16;8.60;;;6.30;;
69551;SDS011;63774;45.292;11.784;2022-10-22T05:42:42;8.80;;;6.10;;
69551;SDS011;63774;45.292;11.784;2022-10-22T05:45:07;7.50;;;5.60;;
69551;SDS011;63774;45.292;11.784;2022-10-22T05:47:33;8.80;;;6.50;;
69551;SDS011;63774;45.292;11.784;2022-10-22T05:49:59;8.30;;;5.80;;
69551;SDS011;63774;45.292;11.784;2022-10-22T05:52:24;7.60;;;6.00;;
69551;SDS011;63774;45.292;11.784;2022-10-22T05:54:50;7.60;;;6.00;;
69551;SDS011;63774;45.292;11.784;2022-10-22T05:57:16;8.90;;;6.40;;
69551;SDS011;63774;45.292;11.784;2022-10-22T05:59:41;8.80;;;5.80;;
69551;SDS011;63774;45.292;11.784;2022-10-22T06:02:09;8.20;;;5.90;;
69551;SDS011;63774;45.292;11.784;2022-10-22T06:04:35;7.20;;;5.50;;
69551;SDS011;63774;45.292;11.784;2022-10-22T06:07:01;10.00;;;6.30;;
69551;SDS011;63774;45.292;11.784;2022-10-22T06:09:28;8.00;;;5.50;;
69551;SDS011;63774;45.292;11.784;2022-10-22T06:11:58;8.20;;;6.20;;
69551;SDS011;63774;45.292;11.784;2022-10-22T06:14:25;8.00;;;5.70;;
69551;SDS011;63774;45.292;11.784;2022-10-22T06:16:51;8.60;;;5.80;;
69551;SDS011;63774;45.292;11.784;2022-10-22T06:19:17;7.60;;;5.60;;
69551;SDS011;63774;45.292;11.784;2022-10-22T06:21:44;8.80;;;6.00;;
69551;SDS011;63774;45.292;11.784;2022-10-22T06:24:10;7.50;;;5.50;;
69551;SDS011;63774;45.292;11.784;2022-10-22T06:26:36;8.40;;;6.00;;
69551;SDS011;63774;45.292;11.784;2022-10-22T06:29:02;8.30;;;6.30;;
69551;SDS011;63774;45.292;11.784;2022-10-22T06:31:28;8.70;;;6.20;;
69551;SDS011;63774;45.292;11.784;2022-10-22T06:34:00;8.90;;;6.40;;
69551;SDS011;63774;45.292;11.784;2022-10-22T06:36:29;8.60;;;6.60;;
69551;SDS011;63774;45.292;11.784;2022-10-22T06:38:55;8.20;;;6.10;;
69551;SDS011;63774;45.292;11.784;2022-10-22T06:41:21;9.00;;;6.40;;
69551;SDS011;63774;45.292;11.784;2022-10-22T06:43:47;8.70;;;6.40;;
69551;SDS011;63774;45.292;11.784;2022-10-22T06:46:14;10.00;;;7.10;;
69551;SDS011;63774;45.292;11.784;2022-10-22T06:48:46;10.40;;;6.90;;
69551;SDS011;63774;45.292;11.784;2022-10-22T06:51:13;8.80;;;6.80;;
69551;SDS011;63774;45.292;11.784;2022-10-22T06:53:40;10.30;;;7.50;;
69551;SDS011;63774;45.292;11.784;2022-10-22T06:56:10;9.80;;;7.10;;
69551;SDS011;63774;45.292;11.784;2022-10-22T06:58:38;11.90;;;7.60;;
69551;SDS011;63774;45.292;11.784;2022-10-22T07:01:14;11.50;;;7.70;;
69551;SDS011;63774;45.292;11.784;2022-10-22T07:03:41;11.30;;;7.70;;
69551;SDS011;63774;45.292;11.784;2022-10-22T07:06:12;12.40;;;8.30;;
69551;SDS011;63774;45.292;11.784;2022-10-22T07:08:39;13.40;;;8.70;;
69551;SDS011;63774;45.292;11.784;2022-10-22T07:13:32;12.80;;;8.50;;
69551;SDS011;63774;45.292;11.784;2022-10-22T07:15:58;14.20;;;8.60;;
69551;SDS011;63774;45.292;11.784;2022-10-22T07:18:24;13.50;;;8.70;;
69551;SDS011;63774;45.292;11.784;2022-10-22T07:20:49;13.40;;;8.90;;
69551;SDS011;63774;45.292;11.784;2022-10-22T07:23:15;19.30;;;8.70;;
69551;SDS011;63774;45.292;11.784;2022-10-22T07:25:40;13.40;;;9.10;;
69551;SDS011;63774;45.292;11.784;2022-10-22T07:28:06;12.40;;;8.70;;
69551;SDS011;63774;45.292;11.784;2022-10-22T07:30:33;13.00;;;9.00;;
69551;SDS011;63774;45.292;11.784;2022-10-22T07:32:59;12.90;;;9.00;;
69551;SDS011;63774;45.292;11.784;2022-10-22T07:35:24;14.10;;;9.00;;
69551;SDS011;63774;45.292;11.784;2022-10-22T07:37:50;13.30;;;9.50;;
69551;SDS011;63774;45.292;11.784;2022-10-22T07:40:15;12.00;;;8.80;;
69551;SDS011;63774;45.292;11.784;2022-10-22T07:42:41;13.80;;;9.00;;
69551;SDS011;63774;45.292;11.784;2022-10-22T07:45:07;13.80;;;9.90;;
69551;SDS011;63774;45.292;11.784;2022-10-22T07:47:33;14.70;;;8.90;;
69551;SDS011;63774;45.292;11.784;2022-10-22T07:50:00;13.40;;;9.40;;
69551;SDS011;63774;45.292;11.784;2022-10-22T07:52:26;13.30;;;8.70;;
69551;SDS011;63774;45.292;11.784;2022-10-22T07:54:52;13.70;;;8.80;;
69551;SDS011;63774;45.292;11.784;2022-10-22T07:57:17;12.80;;;9.00;;
69551;SDS011;63774;45.292;11.784;2022-10-22T07:59:43;13.00;;;9.60;;
69551;SDS011;63774;45.292;11.784;2022-10-22T08:02:09;13.90;;;9.40;;
69551;SDS011;63774;45.292;11.784;2022-10-22T08:04:36;13.90;;;8.90;;
69551;SDS011;63774;45.292;11.784;2022-10-22T08:07:01;14.10;;;8.80;;
69551;SDS011;63774;45.292;11.784;2022-10-22T08:09:27;13.70;;;8.90;;
69551;SDS011;63774;45.292;11.784;2022-10-22T08:11:52;13.40;;;9.00;;
69551;SDS011;63774;45.292;11.784;2022-10-22T08:14:18;15.30;;;9.10;;
69551;SDS011;63774;45.292;11.784;2022-10-22T08:16:44;13.50;;;9.10;;
69551;SDS011;63774;45.292;11.784;2022-10-22T08:19:10;13.70;;;9.10;;
69551;SDS011;63774;45.292;11.784;2022-10-22T08:21:37;12.90;;;8.60;;
69551;SDS011;63774;45.292;11.784;2022-10-22T08:24:04;11.90;;;8.50;;
69551;SDS011;63774;45.292;11.784;2022-10-22T08:26:31;14.00;;;8.80;;
69551;SDS011;63774;45.292;11.784;2022-10-22T08:28:56;13.40;;;8.40;;
69551;SDS011;63774;45.292;11.784;2022-10-22T08:31:22;12.90;;;8.80;;
69551;SDS011;63774;45.292;11.784;2022-10-22T08:33:48;13.00;;;8.60;;
69551;SDS011;63774;45.292;11.784;2022-10-22T08:36:14;13.90;;;8.60;;
69551;SDS011;63774;45.292;11.784;2022-10-22T08:38:39;12.80;;;8.30;;
69551;SDS011;63774;45.292;11.784;2022-10-22T08:41:07;13.40;;;7.80;;
69551;SDS011;63774;45.292;11.784;2022-10-22T08:43:46;12.10;;;8.00;;
69551;SDS011;63774;45.292;11.784;2022-10-22T08:49:26;12.30;;;8.00;;
69551;SDS011;63774;45.292;11.784;2022-10-22T08:51:54;11.10;;;7.90;;
69551;SDS011;63774;45.292;11.784;2022-10-22T08:54:25;10.60;;;7.60;;
69551;SDS011;63774;45.292;11.784;2022-10-22T09:02:01;11.50;;;7.90;;
69551;SDS011;63774;45.292;11.784;2022-10-22T09:04:45;9.50;;;7.30;;
69551;SDS011;63774;45.292;11.784;2022-10-22T09:07:21;12.00;;;7.60;;
69551;SDS011;63774;45.292;11.784;2022-10-22T09:09:48;12.30;;;8.30;;
69551;SDS011;63774;45.292;11.784;2022-10-22T09:12:16;11.00;;;7.80;;
69551;SDS011;63774;45.292;11.784;2022-10-22T09:14:46;11.40;;;7.70;;
69551;SDS011;63774;45.292;11.784;2022-10-22T09:22:57;10.80;;;6.80;;
69551;SDS011;63774;45.292;11.784;2022-10-22T09:25:38;11.30;;;7.20;;
69551;SDS011;63774;45.292;11.784;2022-10-22T09:28:04;12.30;;;7.00;;
69551;SDS011;63774;45.292;11.784;2022-10-22T09:30:33;12.00;;;7.40;;
69551;SDS011;63774;45.292;11.784;2022-10-22T09:33:01;9.00;;;6.50;;
69551;SDS011;63774;45.292;11.784;2022-10-22T09:38:28;10.80;;;7.30;;
69551;SDS011;63774;45.292;11.784;2022-10-22T09:40:57;9.80;;;6.60;;
69551;SDS011;63774;45.292;11.784;2022-10-22T09:43:24;8.80;;;6.10;;
69551;SDS011;63774;45.292;11.784;2022-10-22T09:45:57;9.60;;;6.50;;
69551;SDS011;63774;45.292;11.784;2022-10-22T09:48:29;10.30;;;6.70;;
69551;SDS011;63774;45.292;11.784;2022-10-22T09:53:57;9.80;;;6.30;;
69551;SDS011;63774;45.292;11.784;2022-10-22T09:56:25;8.20;;;5.90;;
69551;SDS011;63774;45.292;11.784;2022-10-22T09:59:05;9.10;;;5.70;;
69551;SDS011;63774;45.292;11.784;2022-10-22T10:01:31;8.80;;;5.80;;
69551;SDS011;63774;45.292;11.784;2022-10-22T10:04:03;8.80;;;5.50;;
69551;SDS011;63774;45.292;11.784;2022-10-22T10:06:31;8.40;;;5.60;;
69551;SDS011;63774;45.292;11.784;2022-10-22T10:08:58;8.50;;;5.50;;
69551;SDS011;63774;45.292;11.784;2022-10-22T10:11:51;9.90;;;5.80;;
69551;SDS011;63774;45.292;11.784;2022-10-22T10:16:57;8.90;;;5.50;;
69551;SDS011;63774;45.292;11.784;2022-10-22T10:40:43;7.70;;;4.80;;
69551;SDS011;63774;45.292;11.784;2022-10-22T10:46:31;11.70;;;5.30;;
69551;SDS011;63774;45.292;11.784;2022-10-22T11:00:03;7.30;;;4.20;;
69551;SDS011;63774;45.292;11.784;2022-10-22T11:02:44;6.10;;;4.50;;
69551;SDS011;63774;45.292;11.784;2022-10-22T11:07:53;6.50;;;4.50;;
69551;SDS011;63774;45.292;11.784;2022-10-22T11:13:16;8.10;;;4.30;;
69551;SDS011;63774;45.292;11.784;2022-10-22T11:15:47;5.70;;;4.10;;
69551;SDS011;63774;45.292;11.784;2022-10-22T11:18:28;5.80;;;4.00;;
69551;SDS011;63774;45.292;11.784;2022-10-22T11:23:27;6.80;;;4.40;;
69551;SDS011;63774;45.292;11.784;2022-10-22T11:26:39;8.40;;;4.40;;
69551;SDS011;63774;45.292;11.784;2022-10-22T11:29:20;7.20;;;4.30;;
69551;SDS011;63774;45.292;11.784;2022-10-22T11:31:50;7.20;;;4.30;;
69551;SDS011;63774;45.292;11.784;2022-10-22T11:34:20;7.30;;;4.30;;
69551;SDS011;63774;45.292;11.784;2022-10-22T11:37:08;6.60;;;4.20;;
69551;SDS011;63774;45.292;11.784;2022-10-22T11:40:45;7.30;;;4.20;;
69551;SDS011;63774;45.292;11.784;2022-10-22T11:43:32;7.30;;;4.30;;
69551;SDS011;63774;45.292;11.784;2022-10-22T11:46:24;10.20;;;5.10;;
69551;SDS011;63774;45.292;11.784;2022-10-22T11:49:14;6.90;;;4.60;;
69551;SDS011;63774;45.292;11.784;2022-10-22T11:51:43;7.90;;;5.20;;
69551;SDS011;63774;45.292;11.784;2022-10-22T11:59:39;7.60;;;5.30;;
69551;SDS011;63774;45.292;11.784;2022-10-22T12:02:30;10.80;;;5.40;;
69551;SDS011;63774;45.292;11.784;2022-10-22T12:05:17;8.60;;;5.10;;
69551;SDS011;63774;45.292;11.784;2022-10-22T12:10:54;8.70;;;5.80;;
69551;SDS011;63774;45.292;11.784;2022-10-22T12:13:33;14.00;;;6.80;;
69551;SDS011;63774;45.292;11.784;2022-10-22T12:16:24;9.90;;;6.50;;
69551;SDS011;63774;45.292;11.784;2022-10-22T12:18:59;10.00;;;6.40;;
69551;SDS011;63774;45.292;11.784;2022-10-22T12:21:37;13.70;;;6.30;;
69551;SDS011;63774;45.292;11.784;2022-10-22T12:24:05;11.20;;;6.60;;
69551;SDS011;63774;45.292;11.784;2022-10-22T12:26:31;9.00;;;6.00;;
69551;SDS011;63774;45.292;11.784;2022-10-22T12:29:02;12.20;;;6.90;;
69551;SDS011;63774;45.292;11.784;2022-10-22T12:31:35;9.50;;;6.30;;
69551;SDS011;63774;45.292;11.784;2022-10-22T12:34:02;10.60;;;6.60;;
69551;SDS011;63774;45.292;11.784;2022-10-22T12:36:29;10.20;;;6.70;;
69551;SDS011;63774;45.292;11.784;2022-10-22T12:39:00;10.70;;;6.80;;
69551;SDS011;63774;45.292;11.784;2022-10-22T12:41:31;9.80;;;6.40;;
69551;SDS011;63774;45.292;11.784;2022-10-22T12:43:59;9.90;;;6.10;;
69551;SDS011;63774;45.292;11.784;2022-10-22T12:46:26;12.50;;;6.80;;
69551;SDS011;63774;45.292;11.784;2022-10-22T12:48:57;9.30;;;7.10;;
69551;SDS011;63774;45.292;11.784;2022-10-22T12:51:24;10.00;;;6.60;;
69551;SDS011;63774;45.292;11.784;2022-10-22T12:53:55;11.20;;;6.40;;
69551;SDS011;63774;45.292;11.784;2022-10-22T12:56:26;11.30;;;6.30;;
69551;SDS011;63774;45.292;11.784;2022-10-22T12:58:56;11.60;;;6.90;;
69551;SDS011;63774;45.292;11.784;2022-10-22T13:01:26;10.40;;;6.70;;
69551;SDS011;63774;45.292;11.784;2022-10-22T13:04:03;11.50;;;6.40;;
69551;SDS011;63774;45.292;11.784;2022-10-22T13:09:57;9.70;;;5.70;;
69551;SDS011;63774;45.292;11.784;2022-10-22T13:12:25;9.50;;;5.60;;
69551;SDS011;63774;45.292;11.784;2022-10-22T13:14:52;10.10;;;5.40;;
69551;SDS011;63774;45.292;11.784;2022-10-22T13:17:19;10.00;;;5.80;;
69551;SDS011;63774;45.292;11.784;2022-10-22T13:20:03;9.30;;;5.50;;
69551;SDS011;63774;45.292;11.784;2022-10-22T13:22:40;7.30;;;4.90;;
69551;SDS011;63774;45.292;11.784;2022-10-22T13:27:45;8.60;;;5.10;;
69551;SDS011;63774;45.292;11.784;2022-10-22T13:30:50;9.60;;;4.90;;
69551;SDS011;63774;45.292;11.784;2022-10-22T13:35:56;7.90;;;5.00;;
69551;SDS011;63774;45.292;11.784;2022-10-22T13:38:23;7.30;;;4.40;;
69551;SDS011;63774;45.292;11.784;2022-10-22T13:40:49;8.60;;;4.20;;
69551;SDS011;63774;45.292;11.784;2022-10-22T13:43:16;9.00;;;4.30;;
69551;SDS011;63774;45.292;11.784;2022-10-22T13:45:42;7.30;;;3.80;;
69551;SDS011;63774;45.292;11.784;2022-10-22T13:48:13;7.00;;;3.90;;
69551;SDS011;63774;45.292;11.784;2022-10-22T13:50:40;6.10;;;3.50;;
69551;SDS011;63774;45.292;11.784;2022-10-22T13:53:08;6.10;;;3.70;;
69551;SDS011;63774;45.292;11.784;2022-10-22T13:55:41;6.60;;;3.70;;
69551;SDS011;63774;45.292;11.784;2022-10-22T13:58:15;6.20;;;3.60;;
69551;SDS011;63774;45.292;11.784;2022-10-22T14:00:48;5.60;;;3.40;;
69551;SDS011;63774;45.292;11.784;2022-10-22T14:03:29;5.60;;;3.10;;
69551;SDS011;63774;45.292;11.784;2022-10-22T14:05:57;7.10;;;3.50;;
69551;SDS011;63774;45.292;11.784;2022-10-22T14:08:23;5.60;;;3.30;;
69551;SDS011;63774;45.292;11.784;2022-10-22T14:10:50;4.70;;;3.00;;
69551;SDS011;63774;45.292;11.784;2022-10-22T14:13:17;5.40;;;2.70;;
69551;SDS011;63774;45.292;11.784;2022-10-22T14:15:44;5.00;;;3.00;;
69551;SDS011;63774;45.292;11.784;2022-10-22T14:18:14;5.00;;;3.10;;
69551;SDS011;63774;45.292;11.784;2022-10-22T14:20:50;5.70;;;3.10;;
69551;SDS011;63774;45.292;11.784;2022-10-22T14:23:18;6.80;;;2.80;;
69551;SDS011;63774;45.292;11.784;2022-10-22T14:25:46;4.70;;;2.80;;
69551;SDS011;63774;45.292;11.784;2022-10-22T14:28:12;5.00;;;2.90;;
69551;SDS011;63774;45.292;11.784;2022-10-22T14:30:38;4.10;;;2.50;;
69551;SDS011;63774;45.292;11.784;2022-10-22T14:33:09;4.80;;;2.70;;
69551;SDS011;63774;45.292;11.784;2022-10-22T14:35:40;5.30;;;2.80;;
69551;SDS011;63774;45.292;11.784;2022-10-22T14:38:06;4.80;;;2.60;;
69551;SDS011;63774;45.292;11.784;2022-10-22T14:40:31;3.60;;;2.30;;
69551;SDS011;63774;45.292;11.784;2022-10-22T14:42:57;4.70;;;2.40;;
69551;SDS011;63774;45.292;11.784;2022-10-22T14:45:24;4.50;;;2.50;;
69551;SDS011;63774;45.292;11.784;2022-10-22T14:47:50;4.10;;;2.60;;
69551;SDS011;63774;45.292;11.784;2022-10-22T14:50:20;5.30;;;2.60;;
69551;SDS011;63774;45.292;11.784;2022-10-22T14:52:45;4.20;;;2.20;;
69551;SDS011;63774;45.292;11.784;2022-10-22T14:55:12;3.70;;;2.50;;
69551;SDS011;63774;45.292;11.784;2022-10-22T14:57:40;4.60;;;2.30;;
69551;SDS011;63774;45.292;11.784;2022-10-22T15:00:08;5.20;;;2.70;;
69551;SDS011;63774;45.292;11.784;2022-10-22T15:02:39;4.20;;;2.40;;
69551;SDS011;63774;45.292;11.784;2022-10-22T15:05:05;3.40;;;1.90;;
69551;SDS011;63774;45.292;11.784;2022-10-22T15:07:33;3.90;;;2.20;;
69551;SDS011;63774;45.292;11.784;2022-10-22T15:09:58;4.60;;;2.10;;
69551;SDS011;63774;45.292;11.784;2022-10-22T15:12:24;3.60;;;2.10;;
69551;SDS011;63774;45.292;11.784;2022-10-22T15:14:49;4.90;;;2.00;;
69551;SDS011;63774;45.292;11.784;2022-10-22T15:17:15;3.90;;;2.00;;
69551;SDS011;63774;45.292;11.784;2022-10-22T15:19:42;2.80;;;1.60;;
69551;SDS011;63774;45.292;11.784;2022-10-22T15:22:07;2.60;;;1.90;;
69551;SDS011;63774;45.292;11.784;2022-10-22T15:24:34;3.70;;;1.90;;
69551;SDS011;63774;45.292;11.784;2022-10-22T15:26:59;2.50;;;1.70;;
69551;SDS011;63774;45.292;11.784;2022-10-22T15:29:27;4.10;;;1.70;;
69551;SDS011;63774;45.292;11.784;2022-10-22T15:31:55;2.60;;;1.80;;
69551;SDS011;63774;45.292;11.784;2022-10-22T15:34:34;3.10;;;1.70;;
69551;SDS011;63774;45.292;11.784;2022-10-22T15:37:01;2.90;;;1.70;;
69551;SDS011;63774;45.292;11.784;2022-10-22T15:39:29;5.60;;;1.70;;
69551;SDS011;63774;45.292;11.784;2022-10-22T15:41:55;4.30;;;1.50;;
69551;SDS011;63774;45.292;11.784;2022-10-22T15:44:23;6.00;;;1.90;;
69551;SDS011;63774;45.292;11.784;2022-10-22T15:46:53;3.90;;;1.70;;
69551;SDS011;63774;45.292;11.784;2022-10-22T15:49:20;3.90;;;1.50;;
69551;SDS011;63774;45.292;11.784;2022-10-22T15:51:46;4.20;;;1.40;;
69551;SDS011;63774;45.292;11.784;2022-10-22T15:54:13;3.60;;;1.80;;
69551;SDS011;63774;45.292;11.784;2022-10-22T15:56:41;2.90;;;1.50;;
69551;SDS011;63774;45.292;11.784;2022-10-22T15:59:08;3.10;;;1.50;;
69551;SDS011;63774;45.292;11.784;2022-10-22T16:01:35;4.20;;;1.40;;
69551;SDS011;63774;45.292;11.784;2022-10-22T16:04:02;2.80;;;1.40;;
69551;SDS011;63774;45.292;11.784;2022-10-22T16:06:29;2.90;;;1.60;;
69551;SDS011;63774;45.292;11.784;2022-10-22T16:09:06;5.90;;;1.60;;
69551;SDS011;63774;45.292;11.784;2022-10-22T16:11:35;3.40;;;1.30;;
69551;SDS011;63774;45.292;11.784;2022-10-22T16:14:01;2.80;;;1.40;;
69551;SDS011;63774;45.292;11.784;2022-10-22T16:16:29;4.00;;;1.50;;
69551;SDS011;63774;45.292;11.784;2022-10-22T16:18:57;2.00;;;1.40;;
69551;SDS011;63774;45.292;11.784;2022-10-22T16:21:23;2.80;;;1.30;;
69551;SDS011;63774;45.292;11.784;2022-10-22T16:23:49;2.10;;;1.30;;
69551;SDS011;63774;45.292;11.784;2022-10-22T16:26:16;3.80;;;1.50;;
69551;SDS011;63774;45.292;11.784;2022-10-22T16:28:43;5.40;;;1.40;;
69551;SDS011;63774;45.292;11.784;2022-10-22T16:31:10;3.30;;;1.60;;
69551;SDS011;63774;45.292;11.784;2022-10-22T16:33:37;4.20;;;1.40;;
69551;SDS011;63774;45.292;11.784;2022-10-22T16:36:07;3.40;;;1.50;;
69551;SDS011;63774;45.292;11.784;2022-10-22T16:38:34;4.90;;;1.70;;